createdAt,value
2018-09-24T00:00:44.694Z,8.88
2018-09-24T00:03:12.823Z,8.84
2018-09-24T00:05:40.969Z,8.80
2018-09-24T00:08:09.090Z,8.83
2018-09-24T00:10:37.257Z,8.73
2018-09-24T00:13:05.380Z,8.61
2018-09-24T00:15:33.508Z,8.57
2018-09-24T00:18:01.655Z,8.61
2018-09-24T00:20:29.829Z,8.55
2018-09-24T00:22:57.945Z,8.54
2018-09-24T00:25:26.471Z,8.59
2018-09-24T00:27:54.841Z,8.58
2018-09-24T00:30:22.964Z,8.66
2018-09-24T00:32:51.104Z,8.71
2018-09-24T00:35:19.252Z,8.77
2018-09-24T00:37:47.420Z,8.77
2018-09-24T00:40:15.563Z,8.85
2018-09-24T00:42:43.898Z,8.86
2018-09-24T00:45:12.049Z,8.81
2018-09-24T00:47:40.291Z,8.68
2018-09-24T00:50:08.420Z,8.64
2018-09-24T00:52:36.578Z,8.77
2018-09-24T00:55:04.688Z,8.83
2018-09-24T00:57:32.809Z,8.84
2018-09-24T01:00:00.934Z,8.75
2018-09-24T01:02:29.055Z,8.73
2018-09-24T01:04:57.206Z,8.71
2018-09-24T01:07:25.304Z,8.77
2018-09-24T01:09:53.421Z,8.64
2018-09-24T01:12:21.535Z,8.57
2018-09-24T01:14:49.685Z,8.65
2018-09-24T01:17:18.116Z,8.69
2018-09-24T01:19:46.315Z,8.65
2018-09-24T01:22:14.440Z,8.50
2018-09-24T01:24:42.560Z,8.51
2018-09-24T01:27:10.705Z,8.54
2018-09-24T01:29:38.857Z,8.48
2018-09-24T01:32:07.030Z,8.52
2018-09-24T01:34:35.312Z,8.57
2018-09-24T01:37:03.405Z,8.58
2018-09-24T01:39:31.573Z,8.49
2018-09-24T01:41:59.712Z,8.44
2018-09-24T01:44:27.832Z,8.40
2018-09-24T01:46:55.973Z,8.35
2018-09-24T01:49:24.100Z,8.36
2018-09-24T01:51:52.218Z,8.49
2018-09-24T01:54:20.711Z,8.53
2018-09-24T01:56:48.840Z,8.68
2018-09-24T01:59:16.936Z,8.60
2018-09-24T02:01:47.172Z,8.66
2018-09-24T02:04:15.860Z,8.77
2018-09-24T02:06:43.946Z,8.80
2018-09-24T02:09:12.117Z,8.81
2018-09-24T02:11:40.201Z,8.73
2018-09-24T02:14:08.338Z,8.75
2018-09-24T02:16:36.453Z,8.64
2018-09-24T02:19:04.679Z,8.62
2018-09-24T02:21:32.788Z,8.61
2018-09-24T02:24:01.594Z,8.64
2018-09-24T02:26:29.774Z,8.70
2018-09-24T02:28:57.917Z,8.61
2018-09-24T02:31:26.148Z,8.59
2018-09-24T02:33:54.347Z,8.59
2018-09-24T02:36:22.513Z,8.50
2018-09-24T02:38:50.687Z,8.38
2018-09-24T02:41:18.790Z,8.21
2018-09-24T02:43:46.950Z,8.29
2018-09-24T02:46:15.091Z,8.20
2018-09-24T02:48:43.203Z,8.11
2018-09-24T02:51:11.323Z,8.18
2018-09-24T02:53:41.493Z,8.20
2018-09-24T02:56:10.106Z,8.17
2018-09-24T02:58:38.212Z,8.28
2018-09-24T03:01:06.366Z,8.15
2018-09-24T03:03:34.467Z,8.11
2018-09-24T03:06:02.608Z,8.11
2018-09-24T03:08:30.764Z,8.11
2018-09-24T03:11:03.941Z,8.16
2018-09-24T03:13:32.099Z,8.25
2018-09-24T03:16:00.246Z,8.23
2018-09-24T03:18:28.421Z,8.30
2018-09-24T03:20:56.588Z,8.31
2018-09-24T03:23:24.678Z,8.31
2018-09-24T03:25:52.834Z,8.44
2018-09-24T03:28:20.981Z,8.38
2018-09-24T03:30:49.123Z,8.33
2018-09-24T03:33:17.260Z,8.27
2018-09-24T03:35:45.400Z,8.21
2018-09-24T03:38:13.509Z,8.20
2018-09-24T03:40:41.697Z,8.24
2018-09-24T03:43:09.792Z,8.21
2018-09-24T03:45:37.927Z,8.12
2018-09-24T03:48:06.366Z,7.95
2018-09-24T03:50:34.488Z,7.82
2018-09-24T03:53:02.694Z,7.82
2018-09-24T03:55:30.822Z,7.80
2018-09-24T03:57:58.936Z,7.82
2018-09-24T04:00:27.049Z,7.89
2018-09-24T04:02:55.191Z,7.90
2018-09-24T04:05:28.655Z,7.97
2018-09-24T04:08:02.956Z,8.01
2018-09-24T04:10:36.435Z,7.99
2018-09-24T04:13:09.973Z,8.09
2018-09-24T04:15:43.681Z,8.03
2018-09-24T04:18:17.212Z,8.13
2018-09-24T04:20:50.719Z,8.00
2018-09-24T04:23:24.138Z,8.16
2018-09-24T04:25:57.548Z,8.18
2018-09-24T04:28:31.219Z,8.17
2018-09-24T04:31:04.632Z,8.22
2018-09-24T04:33:38.028Z,8.14
2018-09-24T04:36:11.511Z,7.95
2018-09-24T04:38:45.010Z,8.04
2018-09-24T04:41:18.697Z,7.95
2018-09-24T04:43:52.352Z,7.88
2018-09-24T04:46:25.825Z,7.93
2018-09-24T04:48:59.320Z,7.72
2018-09-24T04:51:32.835Z,7.65
2018-09-24T04:54:06.293Z,7.73
2018-09-24T04:56:39.817Z,7.68
2018-09-24T04:59:13.277Z,7.60
2018-09-24T05:01:46.869Z,7.58
2018-09-24T05:04:20.311Z,7.62
2018-09-24T05:06:53.781Z,7.54
2018-09-24T05:09:27.216Z,7.63
2018-09-24T05:12:00.596Z,7.75
2018-09-24T05:14:34.168Z,7.86
2018-09-24T05:17:07.609Z,8.03
2018-09-24T05:19:41.080Z,8.07
2018-09-24T05:22:14.851Z,8.15
2018-09-24T05:24:48.341Z,8.18
2018-09-24T05:27:21.848Z,8.06
2018-09-24T05:29:55.364Z,8.02
2018-09-24T05:32:29.043Z,8.06
2018-09-24T05:35:02.449Z,8.07
2018-09-24T05:37:36.073Z,8.15
2018-09-24T05:40:09.540Z,8.25
2018-09-24T05:42:43.171Z,8.17
2018-09-24T05:45:16.708Z,8.15
2018-09-24T05:47:50.303Z,8.17
2018-09-24T05:50:23.743Z,8.19
2018-09-24T05:52:57.299Z,8.36
2018-09-24T05:55:30.768Z,8.50
2018-09-24T05:58:04.181Z,8.55
2018-09-24T06:00:37.737Z,8.36
2018-09-24T06:03:11.164Z,8.00
2018-09-24T06:05:44.839Z,7.86
2018-09-24T06:08:18.593Z,7.78
2018-09-24T06:10:52.574Z,7.67
2018-09-24T06:13:26.635Z,7.55
2018-09-24T06:16:00.101Z,7.55
2018-09-24T06:18:34.040Z,7.70
2018-09-24T06:21:07.606Z,7.79
2018-09-24T06:23:41.586Z,7.69
2018-09-24T06:26:15.506Z,7.70
2018-09-24T06:28:49.260Z,7.59
2018-09-24T06:31:23.415Z,7.62
2018-09-24T06:33:57.531Z,7.75
2018-09-24T06:36:31.177Z,7.94
2018-09-24T06:39:05.142Z,8.07
2018-09-24T06:41:39.333Z,8.11
2018-09-24T06:44:13.157Z,8.11
2018-09-24T06:46:46.922Z,8.23
2018-09-24T06:49:20.580Z,8.34
2018-09-24T06:51:54.584Z,8.40
2018-09-24T06:54:28.773Z,8.52
2018-09-24T06:57:02.871Z,8.73
2018-09-24T06:59:36.869Z,8.86
2018-09-24T07:02:10.597Z,8.78
2018-09-24T07:04:44.363Z,8.88
2018-09-24T07:07:18.272Z,9.07
2018-09-24T07:09:52.142Z,9.20
2018-09-24T07:12:25.680Z,9.28
2018-09-24T07:14:59.361Z,9.32
2018-09-24T07:17:32.912Z,9.51
2018-09-24T07:20:06.524Z,9.49
2018-09-24T07:22:40.068Z,9.60
2018-09-24T07:25:13.540Z,9.68
2018-09-24T07:27:47.137Z,9.94
2018-09-24T07:30:20.695Z,9.88
2018-09-24T07:32:54.575Z,9.94
2018-09-24T07:35:28.968Z,10.09
2018-09-24T07:38:03.091Z,10.29
2018-09-24T07:40:36.576Z,10.26
2018-09-24T07:43:10.248Z,10.42
2018-09-24T07:45:43.941Z,10.42
2018-09-24T07:48:18.121Z,10.51
2018-09-24T07:50:51.959Z,10.64
2018-09-24T07:53:25.815Z,10.75
2018-09-24T07:56:00.008Z,10.76
2018-09-24T07:58:33.755Z,10.87
2018-09-24T08:01:07.389Z,11.07
2018-09-24T08:03:40.789Z,11.12
2018-09-24T08:06:14.342Z,11.22
2018-09-24T08:08:47.821Z,11.10
2018-09-24T08:11:21.346Z,11.30
2018-09-24T08:13:54.762Z,11.39
2018-09-24T08:16:28.163Z,11.41
2018-09-24T08:19:01.633Z,11.52
2018-09-24T08:21:35.208Z,11.61
2018-09-24T08:24:08.815Z,11.46
2018-09-24T08:26:42.216Z,11.53
2018-09-24T08:29:16.421Z,11.57
2018-09-24T08:31:49.953Z,11.47
2018-09-24T08:34:23.391Z,11.14
2018-09-24T08:36:56.973Z,11.07
2018-09-24T08:39:30.387Z,11.16
2018-09-24T08:42:03.886Z,11.08
2018-09-24T08:44:37.355Z,11.34
2018-09-24T08:47:10.833Z,11.62
2018-09-24T08:49:44.418Z,11.65
2018-09-24T08:52:17.987Z,11.88
2018-09-24T08:54:51.454Z,11.79
2018-09-24T08:57:25.000Z,11.90
2018-09-24T08:59:58.457Z,12.08
2018-09-24T09:02:31.900Z,12.27
2018-09-24T09:05:05.320Z,12.32
2018-09-24T09:07:38.772Z,11.91
2018-09-24T09:10:12.266Z,12.04
2018-09-24T09:12:45.864Z,12.43
2018-09-24T09:15:19.362Z,12.58
2018-09-24T09:17:52.768Z,12.38
2018-09-24T09:20:26.398Z,12.42
2018-09-24T09:22:59.824Z,12.58
2018-09-24T09:25:33.393Z,12.74
2018-09-24T09:28:06.772Z,12.72
2018-09-24T09:30:40.275Z,12.78
2018-09-24T09:33:13.888Z,12.90
2018-09-24T09:35:47.542Z,12.67
2018-09-24T09:38:21.112Z,13.00
2018-09-24T09:40:54.615Z,12.90
2018-09-24T09:43:28.174Z,13.04
2018-09-24T09:46:01.657Z,13.01
2018-09-24T09:48:35.244Z,12.80
2018-09-24T09:51:08.770Z,12.39
2018-09-24T09:53:42.424Z,12.79
2018-09-24T09:56:15.945Z,12.77
2018-09-24T09:58:49.410Z,12.80
2018-09-24T10:01:22.770Z,12.90
2018-09-24T10:03:56.197Z,12.83
2018-09-24T10:06:29.819Z,12.61
2018-09-24T10:09:03.196Z,12.36
2018-09-24T10:11:36.715Z,12.50
2018-09-24T10:14:10.178Z,12.61
2018-09-24T10:16:43.704Z,12.85
2018-09-24T10:19:17.101Z,13.03
2018-09-24T10:21:50.532Z,12.62
2018-09-24T10:24:24.062Z,12.28
2018-09-24T10:26:57.701Z,12.35
2018-09-24T10:29:31.238Z,12.09
2018-09-24T10:32:04.721Z,11.76
2018-09-24T10:34:38.348Z,11.85
2018-09-24T10:37:11.818Z,11.84
2018-09-24T10:39:45.271Z,11.82
2018-09-24T10:42:18.709Z,11.78
2018-09-24T10:44:52.156Z,11.40
2018-09-24T10:47:25.697Z,11.42
2018-09-24T10:49:59.197Z,11.85
2018-09-24T10:52:32.633Z,11.97
2018-09-24T10:55:06.108Z,12.02
2018-09-24T10:57:39.708Z,12.10
2018-09-24T11:00:13.278Z,12.07
2018-09-24T11:02:46.686Z,12.08
2018-09-24T11:05:20.206Z,12.36
2018-09-24T11:07:53.791Z,12.30
2018-09-24T11:10:27.589Z,12.29
2018-09-24T11:13:01.169Z,12.65
2018-09-24T11:15:34.891Z,12.84
2018-09-24T11:18:08.278Z,13.14
2018-09-24T11:20:41.595Z,13.19
2018-09-24T11:23:15.173Z,13.42
2018-09-24T11:25:49.557Z,13.64
2018-09-24T11:28:23.195Z,13.79
2018-09-24T11:30:56.630Z,13.17
2018-09-24T11:33:30.204Z,12.39
2018-09-24T11:38:46.226Z,11.10
2018-09-24T11:41:19.638Z,10.79
2018-09-24T11:43:53.261Z,10.09
2018-09-24T11:46:26.812Z,9.82
2018-09-24T11:49:00.331Z,9.31
2018-09-24T11:51:33.739Z,8.92
2018-09-24T11:54:07.088Z,8.83
2018-09-24T11:56:40.605Z,8.83
2018-09-24T11:59:14.142Z,8.66
2018-09-24T12:01:47.588Z,8.98
2018-09-24T12:04:21.057Z,9.17
2018-09-24T12:06:54.428Z,9.18
2018-09-24T12:09:27.987Z,9.39
2018-09-24T12:12:01.436Z,9.50
2018-09-24T12:14:34.827Z,9.59
2018-09-24T12:17:08.353Z,9.84
2018-09-24T12:19:41.732Z,9.99
2018-09-24T12:22:15.296Z,10.13
2018-09-24T12:24:48.845Z,10.02
2018-09-24T12:27:22.413Z,10.28
2018-09-24T12:29:55.833Z,10.58
2018-09-24T12:32:29.392Z,10.79
2018-09-24T12:35:02.869Z,11.01
2018-09-24T12:37:36.399Z,11.21
2018-09-24T12:40:09.840Z,11.41
2018-09-24T12:42:43.243Z,11.52
2018-09-24T12:45:16.846Z,11.32
2018-09-24T12:47:50.492Z,11.10
2018-09-24T12:50:23.925Z,11.10
2018-09-24T12:52:57.396Z,11.02
2018-09-24T12:55:30.908Z,11.41
2018-09-24T12:58:04.333Z,11.52
2018-09-24T13:00:37.877Z,11.60
2018-09-24T13:03:11.305Z,11.90
2018-09-24T13:05:44.829Z,12.18
2018-09-24T13:08:18.479Z,12.37
2018-09-24T13:10:51.868Z,12.33
2018-09-24T13:13:25.409Z,12.27
2018-09-24T13:15:58.823Z,11.98
2018-09-24T13:18:32.243Z,12.01
2018-09-24T13:21:05.889Z,12.02
2018-09-24T13:23:39.483Z,11.90
2018-09-24T13:26:13.207Z,11.79
2018-09-24T13:28:46.702Z,11.95
2018-09-24T13:31:20.321Z,11.92
2018-09-24T13:33:53.760Z,11.60
2018-09-24T13:36:27.268Z,11.94
2018-09-24T13:39:00.835Z,12.01
2018-09-24T13:41:34.356Z,12.36
2018-09-24T13:44:07.800Z,12.54
2018-09-24T13:46:41.274Z,12.50
2018-09-24T13:49:14.943Z,12.40
2018-09-24T13:51:48.383Z,12.05
2018-09-24T13:54:21.876Z,12.21
2018-09-24T13:56:55.428Z,12.23
2018-09-24T13:59:28.876Z,12.18
2018-09-24T14:02:02.268Z,12.21
2018-09-24T14:04:35.777Z,12.33
2018-09-24T14:07:09.435Z,12.27
2018-09-24T14:09:42.995Z,12.05
2018-09-24T14:12:16.542Z,11.98
2018-09-24T14:14:50.008Z,12.02
2018-09-24T14:17:23.447Z,12.12
2018-09-24T14:19:56.917Z,12.16
2018-09-24T14:22:30.399Z,12.18
2018-09-24T14:25:04.018Z,12.35
2018-09-24T14:27:37.480Z,12.55
2018-09-24T14:30:11.266Z,12.51
2018-09-24T14:32:44.773Z,12.48
2018-09-24T14:35:18.355Z,12.35
2018-09-24T14:37:51.766Z,11.94
2018-09-24T14:40:25.170Z,12.13
2018-09-24T14:42:58.690Z,12.20
2018-09-24T14:45:32.265Z,12.17
2018-09-24T14:48:05.874Z,12.09
2018-09-24T14:50:39.380Z,12.13
2018-09-24T14:53:13.060Z,11.93
2018-09-24T14:55:46.447Z,11.99
2018-09-24T14:58:19.984Z,11.91
2018-09-24T15:00:53.455Z,11.76
2018-09-24T15:03:27.074Z,11.67
2018-09-24T15:06:00.577Z,11.46
2018-09-24T15:08:34.081Z,11.35
2018-09-24T15:11:07.621Z,11.31
2018-09-24T15:13:41.236Z,11.20
2018-09-24T15:16:14.690Z,11.07
2018-09-24T15:18:48.191Z,10.97
2018-09-24T15:21:21.757Z,10.86
2018-09-24T15:23:55.296Z,10.91
2018-09-24T15:26:28.740Z,10.89
2018-09-24T15:29:02.438Z,10.80
2018-09-24T15:31:35.854Z,10.87
2018-09-24T15:34:09.494Z,10.97
2018-09-24T15:36:42.929Z,10.89
2018-09-24T15:39:16.270Z,10.83
2018-09-24T15:41:49.781Z,10.57
2018-09-24T15:44:23.172Z,10.45
2018-09-24T15:46:56.777Z,10.47
2018-09-24T15:49:30.158Z,10.42
2018-09-24T15:52:03.637Z,10.34
2018-09-24T15:54:37.109Z,10.36
2018-09-24T15:57:10.609Z,10.37
2018-09-24T15:59:44.057Z,10.34
2018-09-24T16:02:17.504Z,10.39
2018-09-24T16:04:51.037Z,10.36
2018-09-24T16:07:24.526Z,10.34
2018-09-24T16:09:58.116Z,10.28
2018-09-24T16:12:31.525Z,10.14
2018-09-24T16:15:05.309Z,10.07
2018-09-24T16:17:39.189Z,9.90
2018-09-24T16:20:12.635Z,9.89
2018-09-24T16:22:46.057Z,9.95
2018-09-24T16:25:19.582Z,10.01
2018-09-24T16:27:52.980Z,9.89
2018-09-24T16:30:26.438Z,9.88
2018-09-24T16:33:00.512Z,9.78
2018-09-24T16:35:34.090Z,9.86
2018-09-24T16:38:07.578Z,9.76
2018-09-24T16:40:41.088Z,9.80
2018-09-24T16:43:14.682Z,9.63
2018-09-24T16:45:48.298Z,9.56
2018-09-24T16:48:21.905Z,9.50
2018-09-24T16:50:55.447Z,9.51
2018-09-24T16:53:28.850Z,9.64
2018-09-24T16:56:02.418Z,9.62
2018-09-24T16:58:35.963Z,9.63
2018-09-24T17:01:09.476Z,9.66
2018-09-24T17:03:43.200Z,9.56
2018-09-24T17:06:16.820Z,9.57
2018-09-24T17:08:50.400Z,9.47
2018-09-24T17:11:23.915Z,9.49
2018-09-24T17:13:57.316Z,9.62
2018-09-24T17:16:30.788Z,9.49
2018-09-24T17:19:04.291Z,9.41
2018-09-24T17:21:37.784Z,9.32
2018-09-24T17:24:11.342Z,9.37
2018-09-24T17:26:44.773Z,9.39
2018-09-24T17:29:18.390Z,9.22
2018-09-24T17:31:51.873Z,9.19
2018-09-24T17:34:25.343Z,9.14
2018-09-24T17:36:58.781Z,9.16
2018-09-24T17:39:32.309Z,9.13
2018-09-24T17:42:06.006Z,9.13
2018-09-24T17:44:39.703Z,9.06
2018-09-24T17:47:13.193Z,9.03
2018-09-24T17:49:46.715Z,9.01
2018-09-24T17:52:20.213Z,8.93
2018-09-24T17:54:53.730Z,8.96
2018-09-24T17:57:27.729Z,8.86
2018-09-24T18:00:01.607Z,8.88
2018-09-24T18:02:35.170Z,8.80
2018-09-24T18:05:08.671Z,8.86
2018-09-24T18:07:42.295Z,8.77
2018-09-24T18:10:15.948Z,8.77
2018-09-24T18:12:49.496Z,8.70
2018-09-24T18:15:23.103Z,8.70
2018-09-24T18:17:56.608Z,8.61
2018-09-24T18:20:30.146Z,8.63
2018-09-24T18:23:03.647Z,8.56
2018-09-24T18:25:37.537Z,8.56
2018-09-24T18:28:11.404Z,8.53
2018-09-24T18:30:44.827Z,8.58
2018-09-24T18:33:18.425Z,8.61
2018-09-24T18:35:51.964Z,8.54
2018-09-24T18:38:25.544Z,8.56
2018-09-24T18:40:58.949Z,8.49
2018-09-24T18:43:32.339Z,8.53
2018-09-24T18:46:05.766Z,8.51
2018-09-24T18:48:39.201Z,8.50
2018-09-24T18:51:12.752Z,8.45
2018-09-24T18:53:46.856Z,8.52
2018-09-24T18:56:20.396Z,8.41
2018-09-24T18:58:53.922Z,8.39
2018-09-24T19:01:27.323Z,8.41
2018-09-24T19:04:00.795Z,8.30
2018-09-24T19:06:34.157Z,8.26
2018-09-24T19:09:07.622Z,8.19
2018-09-24T19:11:41.237Z,8.17
2018-09-24T19:14:14.950Z,8.21
2018-09-24T19:16:48.404Z,8.20
2018-09-24T19:19:21.805Z,8.17
2018-09-24T19:21:55.453Z,8.16
2018-09-24T19:24:29.030Z,8.13
2018-09-24T19:27:02.480Z,8.12
2018-09-24T19:29:36.001Z,8.09
2018-09-24T19:32:09.410Z,8.07
2018-09-24T19:34:43.033Z,8.06
2018-09-24T19:37:16.594Z,8.02
2018-09-24T19:39:50.133Z,8.07
2018-09-24T19:42:23.661Z,7.95
2018-09-24T19:44:57.308Z,7.87
2018-09-24T19:47:30.714Z,7.79
2018-09-24T19:50:04.390Z,7.79
2018-09-24T19:52:37.923Z,7.70
2018-09-24T19:55:11.456Z,7.70
2018-09-24T19:57:44.941Z,7.83
2018-09-24T20:00:18.516Z,7.82
2018-09-24T20:02:51.969Z,7.78
2018-09-24T20:05:25.328Z,7.84
2018-09-24T20:07:58.870Z,7.69
2018-09-24T20:10:32.343Z,7.65
2018-09-24T20:13:06.278Z,7.70
2018-09-24T20:15:39.625Z,7.70
2018-09-24T20:18:13.070Z,7.78
2018-09-24T20:20:46.678Z,7.61
2018-09-24T20:23:20.229Z,7.60
2018-09-24T20:25:53.653Z,7.66
2018-09-24T20:28:27.192Z,7.70
2018-09-24T20:31:00.671Z,7.69
2018-09-24T20:33:34.206Z,7.67
2018-09-24T20:36:07.657Z,7.61
2018-09-24T20:38:41.140Z,7.55
2018-09-24T20:41:14.577Z,7.42
2018-09-24T20:43:48.774Z,7.36
2018-09-24T20:46:22.273Z,7.46
2018-09-24T20:48:55.674Z,7.47
2018-09-24T20:51:29.185Z,7.46
2018-09-24T20:54:02.804Z,7.28
2018-09-24T20:56:36.308Z,7.20
2018-09-24T20:59:09.752Z,7.06
2018-09-24T21:01:43.430Z,7.07
2018-09-24T21:04:17.042Z,7.08
2018-09-24T21:06:50.566Z,7.17
2018-09-24T21:09:24.078Z,7.14
2018-09-24T21:11:57.617Z,7.06
2018-09-24T21:14:31.217Z,7.03
2018-09-24T21:17:04.692Z,7.00
2018-09-24T21:19:38.236Z,7.10
2018-09-24T21:22:12.068Z,7.10
2018-09-24T21:24:45.520Z,7.07
2018-09-24T21:27:19.133Z,6.77
2018-09-24T21:29:52.628Z,6.83
2018-09-24T21:32:26.102Z,6.85
2018-09-24T21:34:59.492Z,6.66
2018-09-24T21:37:33.009Z,6.71
2018-09-24T21:40:06.371Z,6.68
2018-09-24T21:42:39.862Z,6.68
2018-09-24T21:45:13.428Z,6.61
2018-09-24T21:47:47.011Z,6.70
2018-09-24T21:50:20.453Z,6.41
2018-09-24T21:52:53.978Z,6.38
2018-09-24T21:55:27.538Z,6.26
2018-09-24T21:58:01.148Z,6.19
2018-09-24T22:00:34.541Z,6.13
2018-09-24T22:03:08.151Z,6.04
2018-09-24T22:05:41.633Z,6.05
2018-09-24T22:08:15.066Z,6.05
2018-09-24T22:10:48.516Z,5.89
2018-09-24T22:13:21.990Z,5.89
2018-09-24T22:15:55.517Z,5.85
2018-09-24T22:18:29.145Z,6.04
2018-09-24T22:21:02.741Z,6.19
2018-09-24T22:23:36.203Z,6.12
2018-09-24T22:26:09.620Z,6.09
2018-09-24T22:28:43.130Z,6.04
2018-09-24T22:31:16.711Z,5.97
2018-09-24T22:33:50.174Z,5.84
2018-09-24T22:36:23.605Z,5.84
2018-09-24T22:38:57.140Z,5.96
2018-09-24T22:41:30.673Z,6.01
2018-09-24T22:44:04.316Z,6.10
2018-09-24T22:46:37.990Z,6.09
2018-09-24T22:49:11.569Z,6.04
2018-09-24T22:51:44.912Z,5.90
2018-09-24T22:54:18.569Z,5.82
2018-09-24T22:56:52.017Z,5.86
2018-09-24T22:59:25.729Z,5.93
2018-09-24T23:01:59.249Z,5.96
2018-09-24T23:04:32.845Z,5.95
2018-09-24T23:07:06.260Z,5.92
2018-09-24T23:09:39.875Z,5.96
2018-09-24T23:12:13.352Z,5.89
2018-09-24T23:14:46.860Z,5.85
2018-09-24T23:17:20.595Z,5.79
2018-09-24T23:19:54.049Z,5.87
2018-09-24T23:22:27.626Z,5.82
2018-09-24T23:25:01.125Z,5.85
2018-09-24T23:27:34.801Z,5.85
2018-09-24T23:30:08.202Z,5.76
2018-09-24T23:32:41.896Z,5.79
2018-09-24T23:35:15.746Z,5.82
2018-09-24T23:37:49.338Z,5.90
2018-09-24T23:40:22.911Z,5.89
2018-09-24T23:42:56.440Z,5.86
2018-09-24T23:45:30.016Z,5.93
2018-09-24T23:48:03.510Z,5.79
2018-09-24T23:50:37.099Z,5.62
2018-09-24T23:53:10.635Z,5.49
2018-09-24T23:55:44.209Z,5.30
2018-09-24T23:58:17.621Z,5.21
